sensor_id;sensor_type;location;lat;lon;timestamp;P1;durP1;ratioP1;P2;durP2;ratioP2
42132;SDS011;70517;48.192;16.278;2023-08-07T00:00:37;0.47;;;0.40;;
42132;SDS011;70517;48.192;16.278;2023-08-07T00:03:37;1.23;;;0.50;;
42132;SDS011;70517;48.192;16.278;2023-08-07T00:06:37;0.40;;;0.40;;
42132;SDS011;70517;48.192;16.278;2023-08-07T00:09:38;1.90;;;0.40;;
42132;SDS011;70517;48.192;16.278;2023-08-07T00:12:38;1.47;;;0.40;;
42132;SDS011;70517;48.192;16.278;2023-08-07T00:15:38;1.10;;;0.37;;
42132;SDS011;70517;48.192;16.278;2023-08-07T00:18:39;0.65;;;0.32;;
42132;SDS011;70517;48.192;16.278;2023-08-07T00:21:39;2.63;;;0.40;;
42132;SDS011;70517;48.192;16.278;2023-08-07T00:24:39;0.60;;;0.50;;
42132;SDS011;70517;48.192;16.278;2023-08-07T00:27:40;0.47;;;0.40;;
42132;SDS011;70517;48.192;16.278;2023-08-07T00:30:40;0.87;;;0.60;;
42132;SDS011;70517;48.192;16.278;2023-08-07T00:33:40;0.63;;;0.50;;
42132;SDS011;70517;48.192;16.278;2023-08-07T00:36:40;0.50;;;0.50;;
42132;SDS011;70517;48.192;16.278;2023-08-07T00:39:41;0.80;;;0.50;;
42132;SDS011;70517;48.192;16.278;2023-08-07T00:42:41;4.37;;;0.80;;
42132;SDS011;70517;48.192;16.278;2023-08-07T00:45:44;1.20;;;0.50;;
42132;SDS011;70517;48.192;16.278;2023-08-07T00:48:45;1.73;;;0.40;;
42132;SDS011;70517;48.192;16.278;2023-08-07T00:51:45;0.43;;;0.40;;
42132;SDS011;70517;48.192;16.278;2023-08-07T00:54:46;1.20;;;0.50;;
42132;SDS011;70517;48.192;16.278;2023-08-07T00:57:46;0.60;;;0.60;;
42132;SDS011;70517;48.192;16.278;2023-08-07T01:00:46;1.40;;;0.60;;
42132;SDS011;70517;48.192;16.278;2023-08-07T01:03:46;1.90;;;0.50;;
42132;SDS011;70517;48.192;16.278;2023-08-07T01:06:47;0.40;;;0.40;;
42132;SDS011;70517;48.192;16.278;2023-08-07T01:09:47;0.50;;;0.50;;
42132;SDS011;70517;48.192;16.278;2023-08-07T01:12:52;1.03;;;0.43;;
42132;SDS011;70517;48.192;16.278;2023-08-07T01:15:59;0.60;;;0.52;;
42132;SDS011;70517;48.192;16.278;2023-08-07T01:19:00;0.90;;;0.65;;
42132;SDS011;70517;48.192;16.278;2023-08-07T01:22:18;0.98;;;0.50;;
42132;SDS011;70517;48.192;16.278;2023-08-07T01:25:19;1.65;;;0.80;;
42132;SDS011;70517;48.192;16.278;2023-08-07T01:28:23;0.53;;;0.53;;
42132;SDS011;70517;48.192;16.278;2023-08-07T01:31:26;1.15;;;0.50;;
42132;SDS011;70517;48.192;16.278;2023-08-07T01:34:29;1.02;;;0.60;;
42132;SDS011;70517;48.192;16.278;2023-08-07T01:37:30;0.85;;;0.60;;
42132;SDS011;70517;48.192;16.278;2023-08-07T01:40:31;1.05;;;0.60;;
42132;SDS011;70517;48.192;16.278;2023-08-07T01:43:32;0.97;;;0.57;;
42132;SDS011;70517;48.192;16.278;2023-08-07T01:46:32;0.50;;;0.50;;
42132;SDS011;70517;48.192;16.278;2023-08-07T01:49:33;1.10;;;0.70;;
42132;SDS011;70517;48.192;16.278;2023-08-07T01:52:33;1.53;;;0.50;;
42132;SDS011;70517;48.192;16.278;2023-08-07T01:55:33;2.23;;;0.50;;
42132;SDS011;70517;48.192;16.278;2023-08-07T01:58:33;1.03;;;0.70;;
42132;SDS011;70517;48.192;16.278;2023-08-07T02:01:34;1.03;;;0.80;;
42132;SDS011;70517;48.192;16.278;2023-08-07T02:04:34;1.10;;;0.70;;
42132;SDS011;70517;48.192;16.278;2023-08-07T02:07:34;2.63;;;0.70;;
42132;SDS011;70517;48.192;16.278;2023-08-07T02:10:34;1.40;;;0.80;;
42132;SDS011;70517;48.192;16.278;2023-08-07T02:13:35;1.23;;;0.60;;
42132;SDS011;70517;48.192;16.278;2023-08-07T02:16:35;1.37;;;0.70;;
42132;SDS011;70517;48.192;16.278;2023-08-07T02:19:36;2.80;;;0.80;;
42132;SDS011;70517;48.192;16.278;2023-08-07T02:22:36;0.93;;;0.60;;
42132;SDS011;70517;48.192;16.278;2023-08-07T02:25:36;0.70;;;0.60;;
42132;SDS011;70517;48.192;16.278;2023-08-07T02:28:36;0.93;;;0.60;;
42132;SDS011;70517;48.192;16.278;2023-08-07T02:31:37;2.33;;;0.60;;
42132;SDS011;70517;48.192;16.278;2023-08-07T02:34:37;0.97;;;0.60;;
42132;SDS011;70517;48.192;16.278;2023-08-07T02:37:37;1.03;;;0.60;;
42132;SDS011;70517;48.192;16.278;2023-08-07T02:40:37;1.53;;;0.70;;
42132;SDS011;70517;48.192;16.278;2023-08-07T02:43:37;4.03;;;0.77;;
42132;SDS011;70517;48.192;16.278;2023-08-07T02:46:38;0.63;;;0.53;;
42132;SDS011;70517;48.192;16.278;2023-08-07T02:49:38;0.97;;;0.70;;
42132;SDS011;70517;48.192;16.278;2023-08-07T02:52:38;1.10;;;0.80;;
42132;SDS011;70517;48.192;16.278;2023-08-07T02:55:38;1.47;;;0.83;;
42132;SDS011;70517;48.192;16.278;2023-08-07T02:58:38;1.53;;;0.90;;
42132;SDS011;70517;48.192;16.278;2023-08-07T03:01:39;1.63;;;0.60;;
42132;SDS011;70517;48.192;16.278;2023-08-07T03:04:39;1.13;;;0.87;;
42132;SDS011;70517;48.192;16.278;2023-08-07T03:07:39;1.03;;;0.93;;
42132;SDS011;70517;48.192;16.278;2023-08-07T03:10:39;1.07;;;0.60;;
42132;SDS011;70517;48.192;16.278;2023-08-07T03:13:39;2.47;;;0.70;;
42132;SDS011;70517;48.192;16.278;2023-08-07T03:16:40;0.83;;;0.67;;
42132;SDS011;70517;48.192;16.278;2023-08-07T03:19:41;0.73;;;0.60;;
42132;SDS011;70517;48.192;16.278;2023-08-07T03:22:42;0.90;;;0.80;;
42132;SDS011;70517;48.192;16.278;2023-08-07T03:25:42;1.03;;;0.60;;
42132;SDS011;70517;48.192;16.278;2023-08-07T03:28:42;1.73;;;0.70;;
42132;SDS011;70517;48.192;16.278;2023-08-07T03:31:45;1.58;;;0.70;;
42132;SDS011;70517;48.192;16.278;2023-08-07T03:34:45;0.90;;;0.60;;
42132;SDS011;70517;48.192;16.278;2023-08-07T03:37:45;0.93;;;0.53;;
42132;SDS011;70517;48.192;16.278;2023-08-07T03:40:46;0.77;;;0.60;;
42132;SDS011;70517;48.192;16.278;2023-08-07T03:43:46;1.37;;;0.67;;
42132;SDS011;70517;48.192;16.278;2023-08-07T03:46:46;1.47;;;0.50;;
42132;SDS011;70517;48.192;16.278;2023-08-07T03:49:46;2.00;;;0.73;;
42132;SDS011;70517;48.192;16.278;2023-08-07T03:52:47;0.60;;;0.50;;
42132;SDS011;70517;48.192;16.278;2023-08-07T03:55:50;0.50;;;0.50;;
42132;SDS011;70517;48.192;16.278;2023-08-07T03:58:51;0.95;;;0.60;;
42132;SDS011;70517;48.192;16.278;2023-08-07T04:01:52;0.70;;;0.60;;
42132;SDS011;70517;48.192;16.278;2023-08-07T04:04:52;1.80;;;0.83;;
42132;SDS011;70517;48.192;16.278;2023-08-07T04:07:52;0.73;;;0.73;;
42132;SDS011;70517;48.192;16.278;2023-08-07T04:11:02;0.60;;;0.50;;
42132;SDS011;70517;48.192;16.278;2023-08-07T04:14:03;0.47;;;0.47;;
42132;SDS011;70517;48.192;16.278;2023-08-07T04:17:04;1.63;;;0.68;;
42132;SDS011;70517;48.192;16.278;2023-08-07T04:20:04;0.60;;;0.53;;
42132;SDS011;70517;48.192;16.278;2023-08-07T04:23:05;0.98;;;0.75;;
42132;SDS011;70517;48.192;16.278;2023-08-07T04:26:05;1.10;;;0.60;;
42132;SDS011;70517;48.192;16.278;2023-08-07T04:29:05;1.23;;;0.60;;
42132;SDS011;70517;48.192;16.278;2023-08-07T04:32:06;1.33;;;0.80;;
42132;SDS011;70517;48.192;16.278;2023-08-07T04:35:06;1.30;;;0.50;;
42132;SDS011;70517;48.192;16.278;2023-08-07T04:38:07;1.20;;;0.45;;
42132;SDS011;70517;48.192;16.278;2023-08-07T04:41:07;0.90;;;0.50;;
42132;SDS011;70517;48.192;16.278;2023-08-07T04:44:07;0.40;;;0.40;;
42132;SDS011;70517;48.192;16.278;2023-08-07T04:47:07;0.60;;;0.50;;
42132;SDS011;70517;48.192;16.278;2023-08-07T04:50:08;1.10;;;0.47;;
42132;SDS011;70517;48.192;16.278;2023-08-07T04:53:08;0.70;;;0.60;;
42132;SDS011;70517;48.192;16.278;2023-08-07T04:56:09;0.98;;;0.50;;
42132;SDS011;70517;48.192;16.278;2023-08-07T04:59:09;0.73;;;0.40;;
42132;SDS011;70517;48.192;16.278;2023-08-07T05:02:10;0.50;;;0.40;;
42132;SDS011;70517;48.192;16.278;2023-08-07T05:05:10;1.40;;;0.40;;
42132;SDS011;70517;48.192;16.278;2023-08-07T05:08:10;0.30;;;0.30;;
42132;SDS011;70517;48.192;16.278;2023-08-07T05:11:10;0.73;;;0.30;;
42132;SDS011;70517;48.192;16.278;2023-08-07T05:14:11;0.73;;;0.37;;
42132;SDS011;70517;48.192;16.278;2023-08-07T05:17:11;0.30;;;0.30;;
42132;SDS011;70517;48.192;16.278;2023-08-07T05:20:13;0.73;;;0.22;;
42132;SDS011;70517;48.192;16.278;2023-08-07T05:23:13;0.97;;;0.20;;
42132;SDS011;70517;48.192;16.278;2023-08-07T05:26:13;0.40;;;0.30;;
42132;SDS011;70517;48.192;16.278;2023-08-07T05:29:13;0.87;;;0.30;;
42132;SDS011;70517;48.192;16.278;2023-08-07T05:32:14;0.20;;;0.20;;
42132;SDS011;70517;48.192;16.278;2023-08-07T05:35:14;1.05;;;0.20;;
42132;SDS011;70517;48.192;16.278;2023-08-07T05:38:14;0.20;;;0.20;;
42132;SDS011;70517;48.192;16.278;2023-08-07T05:41:15;0.40;;;0.20;;
42132;SDS011;70517;48.192;16.278;2023-08-07T05:44:16;0.38;;;0.17;;
42132;SDS011;70517;48.192;16.278;2023-08-07T05:47:16;0.10;;;0.10;;
42132;SDS011;70517;48.192;16.278;2023-08-07T05:50:16;0.20;;;0.20;;
42132;SDS011;70517;48.192;16.278;2023-08-07T05:53:17;1.37;;;0.30;;
42132;SDS011;70517;48.192;16.278;2023-08-07T05:56:17;0.23;;;0.13;;
42132;SDS011;70517;48.192;16.278;2023-08-07T05:59:18;0.10;;;0.10;;
42132;SDS011;70517;48.192;16.278;2023-08-07T06:02:18;0.20;;;0.20;;
42132;SDS011;70517;48.192;16.278;2023-08-07T06:05:19;0.35;;;0.28;;
42132;SDS011;70517;48.192;16.278;2023-08-07T06:08:20;1.27;;;0.10;;
42132;SDS011;70517;48.192;16.278;2023-08-07T06:11:20;1.30;;;0.20;;
42132;SDS011;70517;48.192;16.278;2023-08-07T06:14:21;0.00;;;0.00;;
42132;SDS011;70517;48.192;16.278;2023-08-07T06:17:21;0.00;;;0.00;;
42132;SDS011;70517;48.192;16.278;2023-08-07T06:20:21;1.77;;;0.20;;
42132;SDS011;70517;48.192;16.278;2023-08-07T06:23:21;0.67;;;0.17;;
42132;SDS011;70517;48.192;16.278;2023-08-07T06:26:21;0.17;;;0.17;;
42132;SDS011;70517;48.192;16.278;2023-08-07T06:29:23;0.30;;;0.10;;
42132;SDS011;70517;48.192;16.278;2023-08-07T06:35:23;1.45;;;0.20;;
42132;SDS011;70517;48.192;16.278;2023-08-07T06:38:23;0.10;;;0.10;;
42132;SDS011;70517;48.192;16.278;2023-08-07T06:41:24;0.10;;;0.10;;
42132;SDS011;70517;48.192;16.278;2023-08-07T06:44:24;0.23;;;0.20;;
42132;SDS011;70517;48.192;16.278;2023-08-07T06:47:24;0.30;;;0.20;;
42132;SDS011;70517;48.192;16.278;2023-08-07T06:50:24;1.43;;;0.20;;
42132;SDS011;70517;48.192;16.278;2023-08-07T06:53:24;0.20;;;0.20;;
42132;SDS011;70517;48.192;16.278;2023-08-07T06:56:25;0.50;;;0.37;;
42132;SDS011;70517;48.192;16.278;2023-08-07T06:59:25;0.60;;;0.20;;
42132;SDS011;70517;48.192;16.278;2023-08-07T07:02:25;1.60;;;0.40;;
42132;SDS011;70517;48.192;16.278;2023-08-07T07:05:26;0.30;;;0.13;;
42132;SDS011;70517;48.192;16.278;2023-08-07T07:08:26;0.20;;;0.20;;
42132;SDS011;70517;48.192;16.278;2023-08-07T07:11:26;0.87;;;0.43;;
42132;SDS011;70517;48.192;16.278;2023-08-07T07:14:26;0.67;;;0.20;;
42132;SDS011;70517;48.192;16.278;2023-08-07T07:17:26;0.20;;;0.20;;
42132;SDS011;70517;48.192;16.278;2023-08-07T07:20:27;1.90;;;0.30;;
42132;SDS011;70517;48.192;16.278;2023-08-07T07:23:27;1.03;;;0.50;;
42132;SDS011;70517;48.192;16.278;2023-08-07T07:26:28;0.60;;;0.30;;
42132;SDS011;70517;48.192;16.278;2023-08-07T07:29:28;1.77;;;0.40;;
42132;SDS011;70517;48.192;16.278;2023-08-07T07:32:28;1.93;;;0.50;;
42132;SDS011;70517;48.192;16.278;2023-08-07T07:35:29;0.50;;;0.30;;
42132;SDS011;70517;48.192;16.278;2023-08-07T07:38:29;0.43;;;0.33;;
42132;SDS011;70517;48.192;16.278;2023-08-07T07:41:29;0.85;;;0.40;;
42132;SDS011;70517;48.192;16.278;2023-08-07T07:44:29;0.50;;;0.30;;
42132;SDS011;70517;48.192;16.278;2023-08-07T07:47:30;0.30;;;0.30;;
42132;SDS011;70517;48.192;16.278;2023-08-07T07:50:30;1.02;;;0.45;;
42132;SDS011;70517;48.192;16.278;2023-08-07T07:53:30;0.40;;;0.40;;
42132;SDS011;70517;48.192;16.278;2023-08-07T07:56:31;0.82;;;0.40;;
42132;SDS011;70517;48.192;16.278;2023-08-07T07:59:31;1.03;;;0.50;;
42132;SDS011;70517;48.192;16.278;2023-08-07T08:02:31;0.73;;;0.40;;
42132;SDS011;70517;48.192;16.278;2023-08-07T08:05:31;1.30;;;0.40;;
42132;SDS011;70517;48.192;16.278;2023-08-07T08:08:32;0.73;;;0.60;;
42132;SDS011;70517;48.192;16.278;2023-08-07T08:11:32;1.97;;;0.40;;
42132;SDS011;70517;48.192;16.278;2023-08-07T08:14:33;1.52;;;0.40;;
42132;SDS011;70517;48.192;16.278;2023-08-07T08:17:33;0.80;;;0.50;;
42132;SDS011;70517;48.192;16.278;2023-08-07T08:20:33;0.80;;;0.47;;
42132;SDS011;70517;48.192;16.278;2023-08-07T08:23:33;1.07;;;0.40;;
42132;SDS011;70517;48.192;16.278;2023-08-07T08:26:34;0.73;;;0.50;;
42132;SDS011;70517;48.192;16.278;2023-08-07T08:29:34;0.52;;;0.30;;
42132;SDS011;70517;48.192;16.278;2023-08-07T08:32:35;1.60;;;0.50;;
42132;SDS011;70517;48.192;16.278;2023-08-07T08:35:35;0.50;;;0.50;;
42132;SDS011;70517;48.192;16.278;2023-08-07T08:38:35;1.67;;;0.60;;
42132;SDS011;70517;48.192;16.278;2023-08-07T08:41:35;1.33;;;0.63;;
42132;SDS011;70517;48.192;16.278;2023-08-07T08:44:36;0.40;;;0.40;;
42132;SDS011;70517;48.192;16.278;2023-08-07T08:47:38;0.60;;;0.50;;
42132;SDS011;70517;48.192;16.278;2023-08-07T08:50:38;0.45;;;0.43;;
42132;SDS011;70517;48.192;16.278;2023-08-07T08:53:39;0.68;;;0.40;;
42132;SDS011;70517;48.192;16.278;2023-08-07T08:56:39;0.77;;;0.60;;
42132;SDS011;70517;48.192;16.278;2023-08-07T08:59:40;1.23;;;0.50;;
42132;SDS011;70517;48.192;16.278;2023-08-07T09:05:41;0.50;;;0.50;;
42132;SDS011;70517;48.192;16.278;2023-08-07T09:08:42;0.70;;;0.50;;
42132;SDS011;70517;48.192;16.278;2023-08-07T09:11:42;0.40;;;0.40;;
42132;SDS011;70517;48.192;16.278;2023-08-07T09:14:43;1.92;;;0.40;;
42132;SDS011;70517;48.192;16.278;2023-08-07T09:20:44;0.65;;;0.50;;
42132;SDS011;70517;48.192;16.278;2023-08-07T09:23:44;0.97;;;0.50;;
42132;SDS011;70517;48.192;16.278;2023-08-07T09:26:45;0.68;;;0.52;;
42132;SDS011;70517;48.192;16.278;2023-08-07T09:29:46;0.97;;;0.60;;
42132;SDS011;70517;48.192;16.278;2023-08-07T09:32:49;1.77;;;0.70;;
42132;SDS011;70517;48.192;16.278;2023-08-07T09:35:50;1.00;;;0.60;;
42132;SDS011;70517;48.192;16.278;2023-08-07T09:38:50;0.90;;;0.60;;
42132;SDS011;70517;48.192;16.278;2023-08-07T09:41:51;0.80;;;0.50;;
42132;SDS011;70517;48.192;16.278;2023-08-07T09:44:51;0.80;;;0.70;;
42132;SDS011;70517;48.192;16.278;2023-08-07T09:48:01;1.03;;;0.70;;
42132;SDS011;70517;48.192;16.278;2023-08-07T09:51:02;0.75;;;0.60;;
42132;SDS011;70517;48.192;16.278;2023-08-07T09:54:03;0.73;;;0.63;;
42132;SDS011;70517;48.192;16.278;2023-08-07T09:57:03;0.90;;;0.57;;
42132;SDS011;70517;48.192;16.278;2023-08-07T10:00:07;1.80;;;0.60;;
42132;SDS011;70517;48.192;16.278;2023-08-07T10:03:11;1.10;;;0.60;;
42132;SDS011;70517;48.192;16.278;2023-08-07T10:06:11;1.37;;;0.90;;
42132;SDS011;70517;48.192;16.278;2023-08-07T10:09:12;2.00;;;0.80;;
42132;SDS011;70517;48.192;16.278;2023-08-07T10:12:12;0.80;;;0.60;;
42132;SDS011;70517;48.192;16.278;2023-08-07T10:15:12;1.10;;;0.70;;
42132;SDS011;70517;48.192;16.278;2023-08-07T10:18:14;1.50;;;0.90;;
42132;SDS011;70517;48.192;16.278;2023-08-07T10:21:14;0.70;;;0.70;;
42132;SDS011;70517;48.192;16.278;2023-08-07T10:24:14;0.93;;;0.73;;
42132;SDS011;70517;48.192;16.278;2023-08-07T10:27:16;1.10;;;0.70;;
42132;SDS011;70517;48.192;16.278;2023-08-07T10:30:16;0.98;;;0.85;;
42132;SDS011;70517;48.192;16.278;2023-08-07T10:33:19;1.27;;;0.80;;
42132;SDS011;70517;48.192;16.278;2023-08-07T10:36:20;1.55;;;0.80;;
42132;SDS011;70517;48.192;16.278;2023-08-07T10:39:20;0.60;;;0.60;;
42132;SDS011;70517;48.192;16.278;2023-08-07T10:42:22;0.80;;;0.70;;
42132;SDS011;70517;48.192;16.278;2023-08-07T10:45:23;0.90;;;0.77;;
42132;SDS011;70517;48.192;16.278;2023-08-07T10:48:24;0.80;;;0.60;;
42132;SDS011;70517;48.192;16.278;2023-08-07T10:51:27;1.40;;;0.97;;
42132;SDS011;70517;48.192;16.278;2023-08-07T10:54:28;0.80;;;0.80;;
42132;SDS011;70517;48.192;16.278;2023-08-07T10:57:28;0.93;;;0.80;;
42132;SDS011;70517;48.192;16.278;2023-08-07T11:00:31;1.23;;;1.00;;
42132;SDS011;70517;48.192;16.278;2023-08-07T11:03:34;1.47;;;1.00;;
42132;SDS011;70517;48.192;16.278;2023-08-07T11:06:35;1.35;;;1.08;;
42132;SDS011;70517;48.192;16.278;2023-08-07T11:09:36;1.20;;;1.05;;
42132;SDS011;70517;48.192;16.278;2023-08-07T11:12:36;1.53;;;1.13;;
42132;SDS011;70517;48.192;16.278;2023-08-07T11:15:37;1.50;;;0.98;;
42132;SDS011;70517;48.192;16.278;2023-08-07T11:18:37;1.10;;;0.90;;
42132;SDS011;70517;48.192;16.278;2023-08-07T11:21:41;1.52;;;0.98;;
42132;SDS011;70517;48.192;16.278;2023-08-07T11:24:42;1.30;;;1.20;;
42132;SDS011;70517;48.192;16.278;2023-08-07T11:27:43;2.47;;;1.40;;
42132;SDS011;70517;48.192;16.278;2023-08-07T11:30:43;1.42;;;1.13;;
42132;SDS011;70517;48.192;16.278;2023-08-07T11:33:44;1.40;;;1.00;;
42132;SDS011;70517;48.192;16.278;2023-08-07T11:36:44;1.23;;;1.00;;
42132;SDS011;70517;48.192;16.278;2023-08-07T11:39:45;1.50;;;1.10;;
42132;SDS011;70517;48.192;16.278;2023-08-07T11:42:46;2.57;;;1.40;;
42132;SDS011;70517;48.192;16.278;2023-08-07T11:45:46;1.53;;;1.23;;
42132;SDS011;70517;48.192;16.278;2023-08-07T11:48:46;1.30;;;1.20;;
42132;SDS011;70517;48.192;16.278;2023-08-07T11:51:46;1.30;;;1.07;;
42132;SDS011;70517;48.192;16.278;2023-08-07T11:54:47;1.50;;;1.27;;
42132;SDS011;70517;48.192;16.278;2023-08-07T11:57:49;1.50;;;1.00;;
42132;SDS011;70517;48.192;16.278;2023-08-07T12:00:49;2.03;;;1.30;;
42132;SDS011;70517;48.192;16.278;2023-08-07T12:03:53;1.43;;;1.23;;
42132;SDS011;70517;48.192;16.278;2023-08-07T12:06:56;2.17;;;1.40;;
42132;SDS011;70517;48.192;16.278;2023-08-07T12:09:57;1.43;;;1.20;;
42132;SDS011;70517;48.192;16.278;2023-08-07T12:13:00;1.30;;;1.20;;
42132;SDS011;70517;48.192;16.278;2023-08-07T12:16:04;1.50;;;1.40;;
42132;SDS011;70517;48.192;16.278;2023-08-07T12:19:05;2.23;;;1.50;;
42132;SDS011;70517;48.192;16.278;2023-08-07T12:22:09;1.83;;;1.10;;
42132;SDS011;70517;48.192;16.278;2023-08-07T12:25:10;2.58;;;1.50;;
42132;SDS011;70517;48.192;16.278;2023-08-07T12:28:10;1.63;;;1.30;;
42132;SDS011;70517;48.192;16.278;2023-08-07T12:31:10;2.50;;;1.70;;
42132;SDS011;70517;48.192;16.278;2023-08-07T12:34:11;3.70;;;1.60;;
42132;SDS011;70517;48.192;16.278;2023-08-07T12:37:11;2.40;;;1.73;;
42132;SDS011;70517;48.192;16.278;2023-08-07T12:40:12;2.92;;;1.90;;
42132;SDS011;70517;48.192;16.278;2023-08-07T12:43:12;1.77;;;1.67;;
42132;SDS011;70517;48.192;16.278;2023-08-07T12:46:12;2.90;;;1.57;;
42132;SDS011;70517;48.192;16.278;2023-08-07T12:49:12;2.63;;;1.97;;
42132;SDS011;70517;48.192;16.278;2023-08-07T12:52:12;2.07;;;1.67;;
42132;SDS011;70517;48.192;16.278;2023-08-07T12:55:14;1.75;;;1.60;;
42132;SDS011;70517;48.192;16.278;2023-08-07T12:58:14;2.03;;;1.50;;
42132;SDS011;70517;48.192;16.278;2023-08-07T13:01:15;1.88;;;1.50;;
42132;SDS011;70517;48.192;16.278;2023-08-07T13:04:15;2.47;;;1.60;;
42132;SDS011;70517;48.192;16.278;2023-08-07T13:07:17;3.50;;;1.98;;
42132;SDS011;70517;48.192;16.278;2023-08-07T13:10:17;3.20;;;1.70;;
42132;SDS011;70517;48.192;16.278;2023-08-07T13:13:17;1.77;;;1.67;;
42132;SDS011;70517;48.192;16.278;2023-08-07T13:16:17;2.17;;;1.97;;
42132;SDS011;70517;48.192;16.278;2023-08-07T13:22:18;2.85;;;1.40;;
42132;SDS011;70517;48.192;16.278;2023-08-07T13:28:18;1.58;;;0.98;;
42132;SDS011;70517;48.192;16.278;2023-08-07T13:31:18;1.58;;;1.13;;
42132;SDS011;70517;48.192;16.278;2023-08-07T13:37:18;1.50;;;1.33;;
42132;SDS011;70517;48.192;16.278;2023-08-07T13:43:19;1.65;;;1.30;;
42132;SDS011;70517;48.192;16.278;2023-08-07T13:46:19;1.97;;;1.23;;
42132;SDS011;70517;48.192;16.278;2023-08-07T13:49:20;1.50;;;1.10;;
42132;SDS011;70517;48.192;16.278;2023-08-07T13:55:21;2.53;;;1.42;;
42132;SDS011;70517;48.192;16.278;2023-08-07T14:01:22;2.63;;;1.20;;
42132;SDS011;70517;48.192;16.278;2023-08-07T14:07:22;2.22;;;1.20;;
42132;SDS011;70517;48.192;16.278;2023-08-07T14:13:23;1.40;;;1.10;;
42132;SDS011;70517;48.192;16.278;2023-08-07T14:16:24;1.33;;;1.08;;
42132;SDS011;70517;48.192;16.278;2023-08-07T14:19:25;1.35;;;1.20;;
42132;SDS011;70517;48.192;16.278;2023-08-07T14:22:25;2.87;;;1.23;;
42132;SDS011;70517;48.192;16.278;2023-08-07T14:25:25;1.83;;;1.30;;
42132;SDS011;70517;48.192;16.278;2023-08-07T14:28:25;1.48;;;1.33;;
42132;SDS011;70517;48.192;16.278;2023-08-07T14:31:28;2.78;;;1.40;;
42132;SDS011;70517;48.192;16.278;2023-08-07T14:34:28;1.53;;;1.20;;
42132;SDS011;70517;48.192;16.278;2023-08-07T14:37:28;4.10;;;1.37;;
42132;SDS011;70517;48.192;16.278;2023-08-07T14:40:29;2.93;;;1.30;;
42132;SDS011;70517;48.192;16.278;2023-08-07T14:46:29;1.45;;;1.15;;
42132;SDS011;70517;48.192;16.278;2023-08-07T14:52:29;1.40;;;1.30;;
42132;SDS011;70517;48.192;16.278;2023-08-07T14:55:30;2.33;;;1.40;;
42132;SDS011;70517;48.192;16.278;2023-08-07T15:01:32;4.18;;;1.70;;
42132;SDS011;70517;48.192;16.278;2023-08-07T15:04:32;1.63;;;1.53;;
42132;SDS011;70517;48.192;16.278;2023-08-07T15:07:32;1.23;;;1.13;;
42132;SDS011;70517;48.192;16.278;2023-08-07T15:10:34;2.03;;;1.08;;
42132;SDS011;70517;48.192;16.278;2023-08-07T15:13:35;1.63;;;1.42;;
42132;SDS011;70517;48.192;16.278;2023-08-07T15:16:35;1.92;;;1.20;;
42132;SDS011;70517;48.192;16.278;2023-08-07T15:19:37;3.88;;;1.30;;
42132;SDS011;70517;48.192;16.278;2023-08-07T15:22:37;2.30;;;1.43;;
42132;SDS011;70517;48.192;16.278;2023-08-07T15:25:37;1.27;;;1.10;;
42132;SDS011;70517;48.192;16.278;2023-08-07T15:28:38;1.30;;;1.00;;
42132;SDS011;70517;48.192;16.278;2023-08-07T15:31:39;3.10;;;1.83;;
42132;SDS011;70517;48.192;16.278;2023-08-07T15:34:39;2.20;;;1.73;;
42132;SDS011;70517;48.192;16.278;2023-08-07T15:37:40;1.50;;;1.20;;
42132;SDS011;70517;48.192;16.278;2023-08-07T15:40:40;2.00;;;1.63;;
42132;SDS011;70517;48.192;16.278;2023-08-07T15:43:41;3.00;;;1.60;;
42132;SDS011;70517;48.192;16.278;2023-08-07T15:46:41;2.08;;;1.88;;
42132;SDS011;70517;48.192;16.278;2023-08-07T15:49:41;1.60;;;1.50;;
42132;SDS011;70517;48.192;16.278;2023-08-07T15:52:44;2.08;;;1.10;;
42132;SDS011;70517;48.192;16.278;2023-08-07T15:55:44;0.97;;;0.80;;
42132;SDS011;70517;48.192;16.278;2023-08-07T16:01:44;2.20;;;0.90;;
42132;SDS011;70517;48.192;16.278;2023-08-07T16:07:45;1.75;;;1.35;;
42132;SDS011;70517;48.192;16.278;2023-08-07T16:13:45;1.08;;;0.98;;
42132;SDS011;70517;48.192;16.278;2023-08-07T16:19:46;2.90;;;2.13;;
42132;SDS011;70517;48.192;16.278;2023-08-07T16:22:46;1.60;;;1.43;;
42132;SDS011;70517;48.192;16.278;2023-08-07T16:28:46;2.85;;;1.10;;
42132;SDS011;70517;48.192;16.278;2023-08-07T16:31:47;1.42;;;1.10;;
42132;SDS011;70517;48.192;16.278;2023-08-07T16:37:48;2.50;;;1.10;;
42132;SDS011;70517;48.192;16.278;2023-08-07T16:43:48;1.10;;;1.00;;
42132;SDS011;70517;48.192;16.278;2023-08-07T16:49:48;1.45;;;0.93;;
42132;SDS011;70517;48.192;16.278;2023-08-07T16:52:50;3.40;;;1.17;;
42132;SDS011;70517;48.192;16.278;2023-08-07T16:55:50;1.40;;;0.90;;
42132;SDS011;70517;48.192;16.278;2023-08-07T16:58:50;3.40;;;1.53;;
42132;SDS011;70517;48.192;16.278;2023-08-07T17:01:50;6.30;;;2.20;;
42132;SDS011;70517;48.192;16.278;2023-08-07T17:04:50;1.87;;;1.60;;
42132;SDS011;70517;48.192;16.278;2023-08-07T17:07:51;1.50;;;1.10;;
42132;SDS011;70517;48.192;16.278;2023-08-07T17:10:51;1.10;;;0.90;;
42132;SDS011;70517;48.192;16.278;2023-08-07T17:13:51;0.80;;;0.80;;
42132;SDS011;70517;48.192;16.278;2023-08-07T17:16:51;1.70;;;0.90;;
42132;SDS011;70517;48.192;16.278;2023-08-07T17:19:52;1.57;;;0.93;;
42132;SDS011;70517;48.192;16.278;2023-08-07T17:22:52;2.33;;;1.10;;
42132;SDS011;70517;48.192;16.278;2023-08-07T17:25:53;1.45;;;0.93;;
42132;SDS011;70517;48.192;16.278;2023-08-07T17:28:53;0.80;;;0.70;;
42132;SDS011;70517;48.192;16.278;2023-08-07T17:31:56;1.20;;;0.90;;
42132;SDS011;70517;48.192;16.278;2023-08-07T17:34:58;1.95;;;1.45;;
42132;SDS011;70517;48.192;16.278;2023-08-07T17:38:00;1.60;;;1.42;;
42132;SDS011;70517;48.192;16.278;2023-08-07T17:41:00;2.40;;;1.27;;
42132;SDS011;70517;48.192;16.278;2023-08-07T17:44:01;1.17;;;1.00;;
42132;SDS011;70517;48.192;16.278;2023-08-07T17:47:01;0.70;;;0.70;;
42132;SDS011;70517;48.192;16.278;2023-08-07T17:50:01;0.60;;;0.60;;
42132;SDS011;70517;48.192;16.278;2023-08-07T17:53:02;0.68;;;0.60;;
42132;SDS011;70517;48.192;16.278;2023-08-07T17:56:03;0.70;;;0.53;;
42132;SDS011;70517;48.192;16.278;2023-08-07T17:59:03;1.90;;;0.70;;
42132;SDS011;70517;48.192;16.278;2023-08-07T18:02:05;2.28;;;0.80;;
42132;SDS011;70517;48.192;16.278;2023-08-07T18:05:05;0.90;;;0.80;;
42132;SDS011;70517;48.192;16.278;2023-08-07T18:08:05;1.40;;;0.53;;
42132;SDS011;70517;48.192;16.278;2023-08-07T18:11:06;1.17;;;0.60;;
42132;SDS011;70517;48.192;16.278;2023-08-07T18:14:06;1.40;;;0.60;;
42132;SDS011;70517;48.192;16.278;2023-08-07T18:17:07;0.60;;;0.60;;
42132;SDS011;70517;48.192;16.278;2023-08-07T18:20:07;2.15;;;0.88;;
42132;SDS011;70517;48.192;16.278;2023-08-07T18:23:08;0.90;;;0.80;;
42132;SDS011;70517;48.192;16.278;2023-08-07T18:26:08;0.70;;;0.70;;
42132;SDS011;70517;48.192;16.278;2023-08-07T18:29:08;1.00;;;0.77;;
42132;SDS011;70517;48.192;16.278;2023-08-07T18:32:09;0.70;;;0.70;;
42132;SDS011;70517;48.192;16.278;2023-08-07T18:35:09;1.10;;;0.70;;
42132;SDS011;70517;48.192;16.278;2023-08-07T18:38:09;0.60;;;0.60;;
42132;SDS011;70517;48.192;16.278;2023-08-07T18:41:09;1.00;;;0.73;;
42132;SDS011;70517;48.192;16.278;2023-08-07T18:44:09;0.60;;;0.60;;
42132;SDS011;70517;48.192;16.278;2023-08-07T18:47:10;0.70;;;0.70;;
42132;SDS011;70517;48.192;16.278;2023-08-07T18:50:10;2.07;;;0.60;;
42132;SDS011;70517;48.192;16.278;2023-08-07T18:53:10;1.43;;;0.57;;
42132;SDS011;70517;48.192;16.278;2023-08-07T18:56:10;1.10;;;0.60;;